Time;durP1;ratioP1;P1;durP2;ratioP2;P2;SDS_P1;SDS_P2;PMS_P1;PMS_P2;Temp;Humidity;BMP_temperature;BMP_pressure;BME280_temperature;BME280_humidity;BME280_pressure;Samples;Min_cycle;Max_cycle;Signal;HPM_P1;HPM_P2
2022/12/22 03:26:58;;;;;;;26.63;3.63;;;;;;;;;;5013363;28;20018;-70
2022/12/22 03:29:24;;;;;;;19.33;3.60;;;;;;;;;;5013482;28;20022;-71
2022/12/22 03:31:50;;;;;;;23.95;4.32;;;;;;;;;;5013420;28;20033;-70
2022/12/22 03:34:17;;;;;;;26.60;3.85;;;;;;;;;;5012042;28;20030;-71
2022/12/22 03:36:43;;;;;;;22.10;3.78;;;;;;;;;;5013002;28;20521;-70
2022/12/22 03:39:09;;;;;;;23.63;3.95;;;;;;;;;;5013139;28;20517;-70
2022/12/22 03:47:06;;;;;;;27.45;5.13;;;;;;;;;;5012802;28;20026;-70
2022/12/22 03:49:32;;;;;;;23.38;4.22;;;;;;;;;;5012724;28;20025;-71
2022/12/22 03:51:58;;;;;;;19.65;3.53;;;;;;;;;;5012787;28;20382;-70
2022/12/22 03:54:25;;;;;;;25.48;4.38;;;;;;;;;;5012947;28;20040;-71
2022/12/22 03:56:52;;;;;;;27.65;4.18;;;;;;;;;;5012709;28;20022;-70
2022/12/22 03:59:19;;;;;;;21.30;3.72;;;;;;;;;;5013515;28;20056;-71
2022/12/22 04:01:46;;;;;;;34.75;4.35;;;;;;;;;;5013009;28;20024;-71
2022/12/22 04:04:14;;;;;;;27.08;4.57;;;;;;;;;;5012604;28;20037;-71
2022/12/22 04:06:41;;;;;;;34.17;4.82;;;;;;;;;;5011301;28;20026;-71
2022/12/22 04:09:08;;;;;;;26.95;4.38;;;;;;;;;;5012717;28;20032;-71
2022/12/22 04:14:19;;;;;;;30.92;4.72;;;;;;;;;;5012594;28;20091;-70
2022/12/22 04:16:46;;;;;;;28.08;4.28;;;;;;;;;;5011319;28;20482;-70
2022/12/22 04:19:12;;;;;;;24.33;4.72;;;;;;;;;;5010966;28;20022;-70
2022/12/22 04:21:39;;;;;;;25.00;4.55;;;;;;;;;;5011428;28;20032;-70
2022/12/22 04:24:05;;;;;;;25.55;4.07;;;;;;;;;;5012323;28;20050;-70
2022/12/22 04:26:32;;;;;;;27.30;4.00;;;;;;;;;;5012954;28;20030;-70
2022/12/22 04:28:58;;;;;;;23.55;4.45;;;;;;;;;;5012836;28;20040;-70
2022/12/22 04:31:24;;;;;;;37.42;4.85;;;;;;;;;;5012704;28;20028;-71
2022/12/22 04:33:50;;;;;;;28.73;4.07;;;;;;;;;;5012063;28;20474;-71
2022/12/22 04:36:17;;;;;;;29.67;3.90;;;;;;;;;;5012368;28;20490;-71
2022/12/22 04:38:44;;;;;;;26.70;4.53;;;;;;;;;;5012215;28;20046;-71
2022/12/22 04:41:10;;;;;;;23.85;3.85;;;;;;;;;;5012246;28;20034;-70
2022/12/22 04:43:37;;;;;;;23.30;3.45;;;;;;;;;;5012481;28;20038;-71
2022/12/22 04:46:03;;;;;;;30.58;3.80;;;;;;;;;;5012575;28;20026;-71
2022/12/22 04:48:30;;;;;;;20.90;3.28;;;;;;;;;;5007427;28;20026;-70
2022/12/22 04:50:58;;;;;;;25.52;3.65;;;;;;;;;;4992875;28;20034;-71
2022/12/22 04:53:25;;;;;;;20.55;3.50;;;;;;;;;;4992499;28;20023;-71
2022/12/22 04:55:55;;;;;;;24.02;3.70;;;;;;;;;;4992683;28;20029;-70
2022/12/22 04:58:21;;;;;;;19.98;4.32;;;;;;;;;;4992621;28;20318;-71
2022/12/22 05:00:48;;;;;;;20.88;3.72;;;;;;;;;;4993373;28;20398;-70
2022/12/22 05:03:14;;;;;;;26.63;3.78;;;;;;;;;;4995916;28;20036;-71
2022/12/22 05:05:40;;;;;;;22.13;3.92;;;;;;;;;;4996244;28;20027;-70
2022/12/22 05:08:07;;;;;;;23.23;4.32;;;;;;;;;;4996504;28;20034;-71
2022/12/22 05:10:33;;;;;;;27.77;4.25;;;;;;;;;;4996354;28;20014;-71
2022/12/22 05:12:59;;;;;;;22.58;3.83;;;;;;;;;;4996407;28;20038;-71
2022/12/22 05:15:30;;;;;;;29.83;4.22;;;;;;;;;;4996429;28;20038;-71
2022/12/22 05:17:57;;;;;;;17.58;3.85;;;;;;;;;;4995701;28;20487;-71
2022/12/22 05:20:24;;;;;;;25.25;4.00;;;;;;;;;;4996078;28;20038;-70
2022/12/22 05:22:50;;;;;;;24.90;3.72;;;;;;;;;;4996238;28;20037;-70
2022/12/22 05:25:17;;;;;;;22.25;4.55;;;;;;;;;;4996017;28;20434;-71
2022/12/22 05:27:44;;;;;;;21.33;3.42;;;;;;;;;;5011088;28;20080;-71
2022/12/22 05:30:10;;;;;;;20.88;4.00;;;;;;;;;;4996259;28;20034;-70
2022/12/22 05:32:37;;;;;;;26.00;4.60;;;;;;;;;;4995982;28;20029;-70
2022/12/22 05:35:03;;;;;;;24.38;4.32;;;;;;;;;;4995887;28;20030;-71
2022/12/22 05:37:29;;;;;;;22.50;4.00;;;;;;;;;;4995592;28;20442;-71
2022/12/22 05:39:56;;;;;;;26.58;4.03;;;;;;;;;;4995938;28;20034;-70
2022/12/22 05:42:34;;;;;;;23.90;4.18;;;;;;;;;;5006864;28;20014;-71
2022/12/22 05:45:06;;;;;;;23.98;4.35;;;;;;;;;;5015195;28;20038;-70
2022/12/22 05:47:33;;;;;;;23.83;3.92;;;;;;;;;;5014694;28;20438;-70
2022/12/22 05:49:59;;;;;;;24.90;4.70;;;;;;;;;;5015190;28;20021;-70
2022/12/22 05:52:26;;;;;;;30.67;4.55;;;;;;;;;;5015106;28;20030;-71
2022/12/22 05:54:52;;;;;;;23.50;3.90;;;;;;;;;;5014837;28;20502;-71
2022/12/22 05:57:18;;;;;;;28.73;4.80;;;;;;;;;;5014907;28;20375;-71
2022/12/22 05:59:45;;;;;;;25.77;3.92;;;;;;;;;;5015124;28;20022;-70
2022/12/22 06:02:11;;;;;;;26.38;5.10;;;;;;;;;;5014716;28;20037;-71
2022/12/22 06:04:37;;;;;;;23.98;3.90;;;;;;;;;;5014846;28;20042;-70
2022/12/22 06:07:04;;;;;;;31.30;4.88;;;;;;;;;;5014925;28;20037;-70
2022/12/22 06:09:30;;;;;;;25.55;4.07;;;;;;;;;;5015045;28;20025;-71
2022/12/22 06:11:56;;;;;;;26.77;4.72;;;;;;;;;;5014708;28;20026;-70
2022/12/22 06:14:23;;;;;;;22.13;4.00;;;;;;;;;;5014735;28;20057;-71
2022/12/22 06:16:49;;;;;;;28.75;5.05;;;;;;;;;;5014508;28;20014;-71
2022/12/22 06:19:15;;;;;;;19.15;4.00;;;;;;;;;;5014551;28;20033;-70
2022/12/22 06:21:42;;;;;;;23.00;3.92;;;;;;;;;;5014938;28;20025;-69
2022/12/22 06:24:08;;;;;;;21.05;4.47;;;;;;;;;;5014610;28;20033;-70
2022/12/22 06:26:34;;;;;;;22.17;4.25;;;;;;;;;;5014686;28;20032;-70
2022/12/22 06:29:01;;;;;;;27.52;4.57;;;;;;;;;;5014787;28;20025;-70
2022/12/22 06:31:27;;;;;;;24.58;3.90;;;;;;;;;;5014096;28;20026;-70
2022/12/22 06:33:53;;;;;;;22.27;3.80;;;;;;;;;;5014347;28;20109;-71
2022/12/22 06:36:20;;;;;;;22.27;4.30;;;;;;;;;;5014191;28;20372;-70
2022/12/22 06:38:46;;;;;;;20.90;3.70;;;;;;;;;;5014055;28;20056;-70
2022/12/22 06:41:12;;;;;;;26.33;4.18;;;;;;;;;;5014375;28;20032;-70
2022/12/22 06:43:39;;;;;;;21.48;4.15;;;;;;;;;;5014048;28;20067;-71
2022/12/22 06:46:05;;;;;;;28.85;3.95;;;;;;;;;;5013939;28;20022;-70
2022/12/22 06:48:31;;;;;;;22.65;4.25;;;;;;;;;;5014258;28;20037;-71
2022/12/22 06:50:58;;;;;;;26.10;3.75;;;;;;;;;;5014132;28;20477;-70
2022/12/22 06:53:25;;;;;;;22.92;4.13;;;;;;;;;;5012727;28;20036;-70
2022/12/22 06:55:52;;;;;;;28.75;4.75;;;;;;;;;;5013871;28;20017;-70
2022/12/22 06:58:18;;;;;;;27.30;4.40;;;;;;;;;;5013612;28;20512;-70
2022/12/22 07:00:47;;;;;;;24.33;4.57;;;;;;;;;;5013991;28;20033;-71
2022/12/22 07:03:13;;;;;;;30.83;4.13;;;;;;;;;;5013970;28;20032;-71
2022/12/22 07:05:39;;;;;;;25.55;4.68;;;;;;;;;;5013917;28;20036;-70
2022/12/22 07:08:06;;;;;;;17.58;3.55;;;;;;;;;;5014023;28;20490;-71
2022/12/22 07:13:20;;;;;;;27.77;4.70;;;;;;;;;;5013094;28;20022;-70
2022/12/22 07:15:47;;;;;;;32.47;4.25;;;;;;;;;;5013421;28;20489;-71
2022/12/22 07:18:15;;;;;;;35.88;4.88;;;;;;;;;;5013398;28;20036;-70
2022/12/22 07:20:42;;;;;;;30.00;5.07;;;;;;;;;;5013711;28;20026;-71
2022/12/22 07:23:08;;;;;;;30.73;5.18;;;;;;;;;;5013065;28;20040;-70
2022/12/22 07:25:34;;;;;;;29.77;4.93;;;;;;;;;;5012023;28;20425;-70
2022/12/22 07:28:01;;;;;;;29.05;4.63;;;;;;;;;;5012047;28;20032;-70
2022/12/22 07:30:27;;;;;;;27.15;5.28;;;;;;;;;;5013671;28;20364;-70
2022/12/22 07:32:54;;;;;;;26.17;5.20;;;;;;;;;;5013335;28;20504;-70
2022/12/22 07:35:20;;;;;;;26.80;6.43;;;;;;;;;;5013079;28;20463;-71
2022/12/22 07:37:49;;;;;;;28.85;4.72;;;;;;;;;;5013176;28;20057;-71
2022/12/22 07:40:16;;;;;;;25.52;4.35;;;;;;;;;;5013384;28;20030;-71
2022/12/22 07:42:45;;;;;;;26.60;4.65;;;;;;;;;;5012506;28;20036;-71
2022/12/22 07:45:12;;;;;;;40.90;5.05;;;;;;;;;;5011982;28;20430;-70
2022/12/22 07:47:39;;;;;;;27.23;5.60;;;;;;;;;;5013059;28;20034;-71
2022/12/22 07:50:24;;;;;;;25.50;4.25;;;;;;;;;;5013337;28;20033;-71
2022/12/22 07:52:51;;;;;;;31.95;5.40;;;;;;;;;;5013130;28;20026;-71
2022/12/22 07:55:18;;;;;;;26.00;4.55;;;;;;;;;;5012744;28;20026;-71
2022/12/22 07:57:45;;;;;;;25.17;5.22;;;;;;;;;;5012891;28;20028;-71
2022/12/22 08:00:12;;;;;;;23.63;4.75;;;;;;;;;;5013062;28;20032;-71
2022/12/22 08:02:38;;;;;;;24.25;4.35;;;;;;;;;;5012941;28;20044;-70
2022/12/22 08:05:05;;;;;;;31.30;5.40;;;;;;;;;;5011811;28;20506;-71
2022/12/22 08:07:34;;;;;;;25.60;4.50;;;;;;;;;;5012165;28;20030;-71
2022/12/22 08:10:00;;;;;;;25.45;4.50;;;;;;;;;;5012824;28;20021;-70
2022/12/22 08:12:28;;;;;;;24.92;4.93;;;;;;;;;;5012701;28;20022;-70
2022/12/22 08:14:55;;;;;;;21.05;4.50;;;;;;;;;;5012422;28;20036;-71
2022/12/22 08:17:21;;;;;;;30.52;4.72;;;;;;;;;;5012686;28;20037;-71
2022/12/22 08:19:47;;;;;;;27.60;4.35;;;;;;;;;;5012586;28;20026;-70
2022/12/22 08:22:14;;;;;;;28.70;5.07;;;;;;;;;;5013017;28;20042;-70
2022/12/22 08:24:40;;;;;;;30.63;4.45;;;;;;;;;;4994810;28;20045;-71
2022/12/22 08:27:10;;;;;;;25.02;4.25;;;;;;;;;;5012243;28;20417;-71
2022/12/22 08:29:43;;;;;;;22.70;4.35;;;;;;;;;;5012630;28;20029;-71
2022/12/22 08:32:10;;;;;;;28.35;5.38;;;;;;;;;;5012485;28;20032;-71
2022/12/22 08:34:36;;;;;;;23.52;4.68;;;;;;;;;;5012370;28;20029;-71
2022/12/22 08:37:05;;;;;;;22.75;4.43;;;;;;;;;;5005409;28;20033;-71
2022/12/22 08:39:32;;;;;;;28.55;5.93;;;;;;;;;;5013875;28;20502;-70
2022/12/22 08:41:59;;;;;;;30.00;5.28;;;;;;;;;;5015477;28;20087;-71
2022/12/22 08:44:28;;;;;;;30.30;5.15;;;;;;;;;;5015829;28;20487;-71
2022/12/22 08:46:56;;;;;;;28.80;4.68;;;;;;;;;;5015613;28;20036;-70
2022/12/22 08:49:22;;;;;;;22.45;4.53;;;;;;;;;;5015725;28;20388;-71
2022/12/22 08:51:49;;;;;;;25.98;5.05;;;;;;;;;;5016012;28;20022;-70
2022/12/22 08:54:16;;;;;;;30.35;4.95;;;;;;;;;;5014387;28;20091;-70
2022/12/22 08:56:42;;;;;;;30.38;5.07;;;;;;;;;;5014466;28;20022;-71
2022/12/22 08:59:09;;;;;;;24.55;5.13;;;;;;;;;;5015940;28;20101;-71
2022/12/22 09:01:37;;;;;;;21.77;4.78;;;;;;;;;;5015555;28;20014;-71
2022/12/22 09:04:03;;;;;;;19.33;4.68;;;;;;;;;;5015484;28;20037;-71
2022/12/22 09:06:31;;;;;;;22.48;4.50;;;;;;;;;;5014726;28;20014;-71
2022/12/22 09:08:58;;;;;;;30.42;5.15;;;;;;;;;;5014838;28;20034;-71
2022/12/22 09:11:25;;;;;;;33.00;4.75;;;;;;;;;;5015385;28;20390;-71
2022/12/22 09:13:52;;;;;;;23.20;4.55;;;;;;;;;;5015372;28;20029;-71
2022/12/22 09:16:19;;;;;;;22.35;4.35;;;;;;;;;;5015368;28;20028;-71
2022/12/22 09:18:46;;;;;;;29.10;4.63;;;;;;;;;;5015164;28;20036;-71
2022/12/22 09:21:12;;;;;;;23.52;4.53;;;;;;;;;;5015366;28;20026;-70
2022/12/22 09:23:38;;;;;;;32.05;5.63;;;;;;;;;;5014778;28;20380;-71
2022/12/22 09:26:08;;;;;;;25.98;5.63;;;;;;;;;;5015118;28;20026;-70
2022/12/22 09:28:35;;;;;;;28.13;4.78;;;;;;;;;;5015025;28;20091;-71
2022/12/22 09:31:01;;;;;;;28.10;5.15;;;;;;;;;;5015041;28;20463;-71
2022/12/22 09:33:28;;;;;;;21.38;4.40;;;;;;;;;;5015003;28;20034;-71
2022/12/22 09:35:54;;;;;;;24.95;4.80;;;;;;;;;;5014411;28;20501;-71
2022/12/22 09:38:20;;;;;;;26.73;4.20;;;;;;;;;;5014481;28;20452;-70
2022/12/22 09:40:47;;;;;;;31.98;5.15;;;;;;;;;;5014689;28;20040;-71
2022/12/22 09:43:17;;;;;;;22.50;4.30;;;;;;;;;;5014693;28;20022;-71
2022/12/22 09:45:44;;;;;;;21.33;4.20;;;;;;;;;;5014758;28;20049;-71
2022/12/22 09:48:12;;;;;;;28.15;4.40;;;;;;;;;;5014218;28;20034;-70
2022/12/22 09:50:39;;;;;;;21.75;4.15;;;;;;;;;;5014576;28;20383;-71
2022/12/22 09:53:06;;;;;;;22.25;4.47;;;;;;;;;;5014329;28;20030;-71
2022/12/22 09:55:44;;;;;;;17.95;3.92;;;;;;;;;;5014371;28;20498;-71
2022/12/22 09:58:15;;;;;;;17.05;3.55;;;;;;;;;;5014299;28;20034;-70
2022/12/22 10:00:42;;;;;;;29.10;4.63;;;;;;;;;;5014378;28;20457;-71
2022/12/22 10:03:30;;;;;;;18.02;3.80;;;;;;;;;;5014415;28;20029;-71
2022/12/22 10:06:03;;;;;;;23.02;3.72;;;;;;;;;;5014283;28;20018;-70
2022/12/22 10:08:33;;;;;;;22.65;4.32;;;;;;;;;;5014328;28;20018;-70
2022/12/22 10:10:59;;;;;;;21.52;3.85;;;;;;;;;;5014573;28;20034;-71
2022/12/22 10:13:25;;;;;;;20.92;4.82;;;;;;;;;;5013729;28;20037;-71
2022/12/22 10:15:52;;;;;;;22.50;4.30;;;;;;;;;;5014035;28;20097;-70
2022/12/22 10:18:24;;;;;;;19.52;3.88;;;;;;;;;;5014128;28;20024;-70
2022/12/22 10:21:05;;;;;;;22.40;3.67;;;;;;;;;;5014168;28;20044;-70
2022/12/22 10:23:34;;;;;;;20.33;4.43;;;;;;;;;;5013558;28;20029;-71
2022/12/22 10:26:05;;;;;;;20.58;4.07;;;;;;;;;;5013592;28;20038;-71
2022/12/22 10:28:39;;;;;;;18.30;3.60;;;;;;;;;;5012275;28;20433;-71
2022/12/22 10:31:10;;;;;;;19.60;3.95;;;;;;;;;;5012550;28;20034;-70
2022/12/22 10:33:38;;;;;;;;;;;;;;;;;;5014277;28;20483;-71
2022/12/22 10:36:05;;;;;;;18.13;3.55;;;;;;;;;;5013192;28;20170;-71
2022/12/22 10:38:33;;;;;;;17.65;3.70;;;;;;;;;;5013644;28;20048;-71
2022/12/22 10:41:22;;;;;;;17.00;3.85;;;;;;;;;;5013666;28;20467;-71
2022/12/22 10:43:53;;;;;;;18.83;3.75;;;;;;;;;;4986309;28;20033;-71
2022/12/22 10:46:27;;;;;;;15.50;3.70;;;;;;;;;;5013889;28;20022;-71
2022/12/22 10:49:07;;;;;;;16.95;3.13;;;;;;;;;;5013082;28;20036;-71
2022/12/22 10:51:34;;;;;;;14.95;3.58;;;;;;;;;;5008183;28;20036;-71
2022/12/22 10:54:00;;;;;;;15.85;3.25;;;;;;;;;;5012002;28;20030;-69
2022/12/22 10:56:28;;;;;;;21.75;4.10;;;;;;;;;;5011754;28;20479;-69
2022/12/22 10:59:04;;;;;;;18.35;3.40;;;;;;;;;;5011509;28;20025;-69
2022/12/22 11:01:34;;;;;;;12.00;3.00;;;;;;;;;;5012285;28;20378;-69
2022/12/22 11:04:19;;;;;;;15.38;3.67;;;;;;;;;;5012120;28;20048;-69
2022/12/22 11:06:46;;;;;;;13.75;3.08;;;;;;;;;;5014382;28;20033;-70
2022/12/22 11:09:12;;;;;;;15.27;3.55;;;;;;;;;;5012104;28;20386;-69
2022/12/22 11:12:08;;;;;;;15.70;3.35;;;;;;;;;;5020257;28;20029;-70
2022/12/22 11:14:54;;;;;;;21.88;3.50;;;;;;;;;;5009903;28;20038;-71
2022/12/22 11:17:45;;;;;;;20.27;3.75;;;;;;;;;;4932024;29;20550;-71
2022/12/22 11:20:14;;;;;;;15.10;3.20;;;;;;;;;;4931997;29;20132;-71
2022/12/22 11:22:46;;;;;;;16.50;2.97;;;;;;;;;;4932496;29;20038;-69
2022/12/22 11:25:16;;;;;;;16.20;3.58;;;;;;;;;;4932139;29;20054;-71
2022/12/22 11:27:42;;;;;;;14.98;3.00;;;;;;;;;;4932296;29;20027;-70
2022/12/22 11:30:13;;;;;;;11.43;2.83;;;;;;;;;;4932672;29;20038;-70
2022/12/22 11:32:39;;;;;;;;;;;;;;;;;;4932372;29;20527;-69
2022/12/22 11:35:24;;;;;;;12.13;2.72;;;;;;;;;;4931997;29;19915;-71
2022/12/22 11:37:55;;;;;;;15.68;3.00;;;;;;;;;;4931770;29;20043;-70
2022/12/22 11:40:40;;;;;;;16.55;3.03;;;;;;;;;;4932138;29;20848;-71
2022/12/22 11:43:06;;;;;;;15.30;2.92;;;;;;;;;;4932194;29;20039;-70
2022/12/22 11:45:41;;;;;;;15.40;3.63;;;;;;;;;;4931798;29;20408;-70
2022/12/22 11:48:11;;;;;;;51.33;26.90;;;;;;;;;;4921337;29;20540;-71
2022/12/22 11:50:37;;;;;;;22.13;9.13;;;;;;;;;;4926352;29;20049;-70
2022/12/22 11:53:14;;;;;;;14.20;5.93;;;;;;;;;;4950687;29;20023;-71
2022/12/22 11:56:01;;;;;;;18.85;4.68;;;;;;;;;;4992127;28;20375;-70
2022/12/22 11:58:30;;;;;;;17.05;5.28;;;;;;;;;;4996504;28;20041;-70
2022/12/22 12:01:03;;;;;;;11.65;3.13;;;;;;;;;;5010550;28;20044;-70
2022/12/22 12:03:38;;;;;;;12.98;3.10;;;;;;;;;;5010661;28;20032;-70
2022/12/22 12:06:21;;;;;;;7.25;2.38;;;;;;;;;;5009558;28;20026;-71
2022/12/22 12:08:56;;;;;;;15.77;3.45;;;;;;;;;;5010308;28;20026;-71
2022/12/22 12:11:22;;;;;;;13.82;3.42;;;;;;;;;;5015952;28;20029;-70
2022/12/22 12:13:49;;;;;;;12.85;3.13;;;;;;;;;;5016514;28;20034;-71
2022/12/22 12:16:27;;;;;;;16.42;3.25;;;;;;;;;;5010631;28;20758;-71
2022/12/22 12:19:02;;;;;;;20.60;4.03;;;;;;;;;;5010743;28;20040;-71
2022/12/22 12:21:29;;;;;;;25.27;4.22;;;;;;;;;;5009818;28;20029;-69
2022/12/22 12:24:08;;;;;;;18.02;4.13;;;;;;;;;;5010885;28;20026;-70
2022/12/22 12:26:40;;;;;;;17.27;3.65;;;;;;;;;;5010775;28;20030;-70
2022/12/22 12:29:24;;;;;;;17.55;3.70;;;;;;;;;;5010904;28;20030;-70
2022/12/22 12:31:57;;;;;;;21.05;4.03;;;;;;;;;;5010585;28;20516;-70
2022/12/22 12:34:24;;;;;;;23.10;3.72;;;;;;;;;;5010918;28;20020;-71
2022/12/22 12:36:58;;;;;;;19.67;3.97;;;;;;;;;;5010964;28;20026;-71
2022/12/22 12:39:46;;;;;;;18.63;3.67;;;;;;;;;;5009362;28;20033;-71
2022/12/22 12:42:13;;;;;;;22.00;3.95;;;;;;;;;;5009942;28;20036;-69
2022/12/22 12:44:39;;;;;;;21.13;4.00;;;;;;;;;;5010253;28;20452;-71
2022/12/22 12:47:08;;;;;;;17.92;4.53;;;;;;;;;;5009759;28;20041;-71
2022/12/22 12:49:34;;;;;;;16.17;4.70;;;;;;;;;;5010747;28;20037;-70
2022/12/22 12:52:11;;;;;;;17.45;4.43;;;;;;;;;;5011067;28;20022;-69
2022/12/22 12:54:47;;;;;;;18.25;4.80;;;;;;;;;;5010512;28;20022;-70
2022/12/22 12:57:25;;;;;;;20.75;4.85;;;;;;;;;;5010510;28;20020;-69
2022/12/22 12:59:53;;;;;;;22.88;5.13;;;;;;;;;;5009792;28;20040;-70
2022/12/22 13:02:36;;;;;;;17.00;4.10;;;;;;;;;;5010618;28;20032;-70
2022/12/22 13:05:16;;;;;;;17.80;4.00;;;;;;;;;;5010403;28;20409;-71
2022/12/22 13:08:01;;;;;;;16.45;4.00;;;;;;;;;;5010942;28;20021;-71
2022/12/22 13:10:27;;;;;;;17.98;3.85;;;;;;;;;;5010131;28;20421;-71
2022/12/22 13:12:54;;;;;;;15.82;4.78;;;;;;;;;;5009964;28;20044;-71
2022/12/22 13:15:26;;;;;;;19.30;4.10;;;;;;;;;;5010441;28;20022;-70
2022/12/22 13:17:53;;;;;;;23.77;4.45;;;;;;;;;;5010095;28;20022;-71
2022/12/22 13:20:25;;;;;;;14.82;3.65;;;;;;;;;;5009466;28;20042;-71
2022/12/22 13:22:52;;;;;;;19.45;4.63;;;;;;;;;;5013024;28;20038;-71
2022/12/22 13:25:19;;;;;;;19.88;4.25;;;;;;;;;;5014008;28;20048;-70
2022/12/22 13:27:45;;;;;;;19.98;5.05;;;;;;;;;;5013999;28;20029;-70
2022/12/22 13:30:13;;;;;;;18.80;4.75;;;;;;;;;;5013794;28;20034;-69
2022/12/22 13:32:40;;;;;;;13.02;3.30;;;;;;;;;;5014126;28;20028;-70
2022/12/22 13:35:15;;;;;;;11.90;3.35;;;;;;;;;;5014039;28;20052;-71
2022/12/22 13:37:46;;;;;;;20.10;4.57;;;;;;;;;;5014249;28;20049;-71
2022/12/22 13:40:12;;;;;;;17.27;4.40;;;;;;;;;;5013022;28;20036;-70
2022/12/22 13:43:01;;;;;;;15.90;3.25;;;;;;;;;;5014056;28;20044;-71
2022/12/22 13:45:28;;;;;;;18.75;3.85;;;;;;;;;;5012894;28;20044;-70
2022/12/22 13:47:55;;;;;;;13.65;3.35;;;;;;;;;;5013344;28;20022;-71
2022/12/22 13:50:25;;;;;;;11.38;2.92;;;;;;;;;;5013843;28;20030;-71
2022/12/22 13:52:52;;;;;;;12.48;3.40;;;;;;;;;;5013297;28;20490;-71
2022/12/22 13:55:22;;;;;;;14.93;2.65;;;;;;;;;;5012834;28;20457;-69
2022/12/22 13:57:50;;;;;;;10.30;3.15;;;;;;;;;;5013484;28;20026;-71
2022/12/22 14:00:21;;;;;;;10.63;2.88;;;;;;;;;;5013333;28;20034;-71
2022/12/22 14:02:47;;;;;;;15.70;3.83;;;;;;;;;;5013619;28;20033;-69
2022/12/22 14:05:14;;;;;;;11.80;3.63;;;;;;;;;;5013296;28;20034;-69
2022/12/22 14:07:56;;;;;;;17.08;3.30;;;;;;;;;;5013745;28;20033;-69
2022/12/22 14:10:27;;;;;;;9.95;3.20;;;;;;;;;;5013654;28;20022;-71
2022/12/22 14:12:53;;;;;;;14.20;3.78;;;;;;;;;;5013507;28;20044;-71
2022/12/22 14:15:20;;;;;;;14.18;3.42;;;;;;;;;;5012823;28;20509;-71
2022/12/22 14:17:46;;;;;;;15.80;3.65;;;;;;;;;;5013034;28;20418;-71
2022/12/22 14:20:25;;;;;;;31.48;6.28;;;;;;;;;;5012129;28;20036;-71
2022/12/22 14:22:54;;;;;;;23.80;7.40;;;;;;;;;;5013011;28;20429;-71
2022/12/22 14:25:31;;;;;;;34.75;9.50;;;;;;;;;;5012860;28;20032;-71
2022/12/22 14:27:57;;;;;;;18.70;6.00;;;;;;;;;;5012791;28;20028;-71
2022/12/22 14:30:26;;;;;;;18.00;5.45;;;;;;;;;;5012604;28;20024;-72
2022/12/22 14:32:56;;;;;;;17.90;4.80;;;;;;;;;;5013254;28;20100;-71
2022/12/22 14:35:22;;;;;;;16.35;4.15;;;;;;;;;;5011556;28;20032;-71
2022/12/22 14:37:53;;;;;;;19.05;4.85;;;;;;;;;;5012756;28;20046;-71
2022/12/22 14:40:19;;;;;;;;;;;;;;;;;;5013485;28;20080;-71
2022/12/22 14:42:46;;;;;;;19.13;4.90;;;;;;;;;;5012564;28;19906;-71
2022/12/22 14:45:14;;;;;;;15.93;3.78;;;;;;;;;;5012838;28;20040;-71
2022/12/22 14:47:40;;;;;;;18.27;4.78;;;;;;;;;;5012920;28;20033;-70
2022/12/22 14:50:26;;;;;;;15.48;4.22;;;;;;;;;;5012376;28;20044;-71
2022/12/22 14:52:54;;;;;;;19.13;4.18;;;;;;;;;;5012945;28;20018;-71
2022/12/22 14:55:28;;;;;;;16.73;4.53;;;;;;;;;;5009827;28;20026;-70
2022/12/22 14:57:57;;;;;;;20.75;4.40;;;;;;;;;;5011535;28;20096;-70
2022/12/22 15:00:24;;;;;;;21.48;4.15;;;;;;;;;;5011755;28;20503;-71
2022/12/22 15:02:52;;;;;;;19.55;3.90;;;;;;;;;;5012060;28;20503;-71
2022/12/22 15:05:33;;;;;;;20.33;4.18;;;;;;;;;;5030404;28;20030;-71
2022/12/22 15:08:00;;;;;;;17.92;4.10;;;;;;;;;;5018408;28;20037;-71
2022/12/22 15:10:28;;;;;;;24.55;4.10;;;;;;;;;;5021956;28;20028;-69
2022/12/22 15:12:58;;;;;;;15.88;3.75;;;;;;;;;;5022262;28;20017;-71
2022/12/22 15:15:25;;;;;;;18.95;3.70;;;;;;;;;;5020967;28;20018;-71
2022/12/22 15:17:52;;;;;;;22.20;3.92;;;;;;;;;;5020537;28;20067;-71
2022/12/22 15:20:20;;;;;;;23.17;4.60;;;;;;;;;;5022608;28;20025;-71
2022/12/22 15:22:46;;;;;;;24.55;5.82;;;;;;;;;;5009133;28;20018;-71
2022/12/22 15:25:17;;;;;;;21.10;5.00;;;;;;;;;;5013492;28;20080;-71
2022/12/22 15:27:43;;;;;;;;;;;;;;;;;;5012751;28;20376;-71
2022/12/22 15:30:12;;;;;;;23.63;5.25;;;;;;;;;;5011341;28;19912;-71
2022/12/22 15:32:39;;;;;;;27.67;4.68;;;;;;;;;;5011763;28;20034;-71
2022/12/22 15:35:14;;;;;;;18.33;4.10;;;;;;;;;;5008218;28;20033;-71
2022/12/22 15:37:41;;;;;;;21.10;4.25;;;;;;;;;;5011100;28;20048;-71
2022/12/22 15:40:17;;;;;;;21.45;4.05;;;;;;;;;;5011548;28;20022;-71
